createdAt,value
2022-10-22T00:02:55.782Z,72.53
2022-10-22T00:05:58.820Z,73.02
2022-10-22T00:09:01.368Z,72.46
2022-10-22T00:12:05.000Z,72.08
2022-10-22T00:15:08.070Z,72.49
2022-10-22T00:18:11.415Z,73.62
2022-10-22T00:21:14.103Z,73.81
2022-10-22T00:24:16.899Z,74.54
2022-10-22T00:27:19.634Z,73.27
2022-10-22T00:30:23.053Z,73.96
2022-10-22T00:33:29.608Z,73.85
2022-10-22T00:36:32.437Z,74.86
2022-10-22T00:39:35.270Z,75.14
2022-10-22T00:42:38.348Z,74.31
2022-10-22T00:45:41.456Z,74.06
2022-10-22T00:48:44.384Z,75.17
2022-10-22T00:51:46.911Z,74.88
2022-10-22T00:54:50.975Z,74.77
2022-10-22T00:57:55.846Z,74.73
2022-10-22T01:00:59.108Z,75.10
2022-10-22T01:04:01.765Z,76.21
2022-10-22T01:07:04.955Z,76.37
2022-10-22T01:10:26.494Z,76.09
2022-10-22T01:13:44.206Z,76.19
2022-10-22T01:16:52.498Z,75.49
2022-10-22T01:20:14.131Z,76.03
2022-10-22T01:23:31.799Z,76.30
2022-10-22T01:27:12.012Z,76.76
2022-10-22T01:30:15.631Z,76.63
2022-10-22T01:33:22.891Z,75.98
2022-10-22T01:36:26.027Z,76.59
2022-10-22T01:39:31.011Z,76.54
2022-10-22T01:42:33.606Z,77.27
2022-10-22T01:45:42.353Z,77.76
2022-10-22T01:49:12.932Z,77.24
2022-10-22T01:52:35.864Z,77.05
2022-10-22T01:55:53.335Z,76.83
2022-10-22T01:59:04.114Z,77.31
2022-10-22T02:02:09.854Z,76.35
2022-10-22T02:05:23.229Z,77.37
2022-10-22T02:08:31.060Z,77.82
2022-10-22T02:11:34.452Z,76.93
2022-10-22T02:14:41.259Z,77.30
2022-10-22T02:17:46.674Z,76.35
2022-10-22T02:20:49.905Z,77.61
2022-10-22T02:23:52.666Z,78.43
2022-10-22T02:27:07.371Z,78.09
2022-10-22T02:30:14.191Z,76.55
2022-10-22T02:33:27.151Z,75.39
2022-10-22T02:36:30.637Z,76.11
2022-10-22T02:39:34.102Z,78.22
2022-10-22T02:42:39.514Z,78.27
2022-10-22T02:45:42.180Z,79.47
2022-10-22T02:48:45.024Z,80.02
2022-10-22T02:51:47.617Z,78.95
2022-10-22T02:54:50.509Z,79.36
2022-10-22T02:57:53.038Z,80.97
2022-10-22T03:00:55.835Z,81.52
2022-10-22T03:03:58.367Z,80.74
2022-10-22T03:07:01.135Z,81.74
2022-10-22T03:10:04.194Z,80.31
2022-10-22T03:13:07.093Z,81.42
2022-10-22T03:16:09.610Z,81.32
2022-10-22T03:19:12.597Z,81.90
2022-10-22T03:22:20.387Z,83.05
2022-10-22T03:25:26.980Z,82.26
2022-10-22T03:28:31.649Z,81.64
2022-10-22T03:31:35.495Z,83.23
2022-10-22T03:34:38.008Z,84.48
2022-10-22T03:37:41.026Z,84.67
2022-10-22T03:40:45.970Z,83.34
2022-10-22T03:43:52.753Z,83.31
2022-10-22T03:46:58.660Z,84.58
2022-10-22T03:50:06.195Z,85.22
2022-10-22T03:53:10.621Z,84.10
2022-10-22T03:56:13.825Z,83.99
2022-10-22T03:59:16.510Z,85.25
2022-10-22T04:02:19.468Z,85.96
2022-10-22T04:05:22.244Z,85.88
2022-10-22T04:08:24.778Z,85.68
2022-10-22T04:11:27.787Z,85.42
2022-10-22T04:14:30.346Z,84.66
2022-10-22T04:17:34.927Z,84.64
2022-10-22T04:20:37.518Z,84.53
2022-10-22T04:23:45.463Z,83.64
2022-10-22T04:26:47.970Z,85.37
2022-10-22T04:29:52.345Z,85.20
2022-10-22T04:32:54.788Z,84.73
2022-10-22T04:35:57.646Z,85.41
2022-10-22T04:39:01.427Z,85.24
2022-10-22T04:42:04.463Z,85.23
2022-10-22T04:45:07.924Z,85.59
2022-10-22T04:48:10.975Z,84.76
2022-10-22T04:51:17.638Z,84.16
2022-10-22T04:54:20.345Z,84.87
2022-10-22T04:57:22.851Z,85.18
2022-10-22T05:00:25.532Z,86.20
2022-10-22T05:03:28.042Z,86.92
2022-10-22T05:06:33.211Z,86.74
2022-10-22T05:09:35.775Z,86.90
2022-10-22T05:12:38.568Z,86.46
2022-10-22T05:15:41.311Z,85.49
2022-10-22T05:18:45.044Z,86.31
2022-10-22T05:21:47.563Z,85.77
2022-10-22T05:24:50.338Z,84.33
2022-10-22T05:27:55.212Z,85.64
2022-10-22T05:31:01.242Z,86.11
2022-10-22T05:34:03.751Z,84.29
2022-10-22T05:37:07.909Z,83.79
2022-10-22T05:40:19.553Z,82.38
2022-10-22T05:43:30.372Z,82.23
2022-10-22T05:46:35.344Z,82.98
2022-10-22T05:49:38.190Z,83.23
2022-10-22T05:52:40.805Z,82.34
2022-10-22T05:55:44.699Z,81.97
2022-10-22T05:58:47.804Z,81.85
2022-10-22T06:01:50.989Z,82.01
2022-10-22T06:04:53.807Z,82.71
2022-10-22T06:07:57.828Z,83.00
2022-10-22T06:11:00.932Z,79.69
2022-10-22T06:14:04.310Z,80.71
2022-10-22T06:17:07.101Z,79.08
2022-10-22T06:20:10.784Z,78.34
2022-10-22T06:23:15.682Z,76.99
2022-10-22T06:26:18.476Z,76.65
2022-10-22T06:29:21.769Z,75.93
2022-10-22T06:32:24.382Z,75.86
2022-10-22T06:35:27.103Z,75.32
2022-10-22T06:38:29.557Z,75.05
2022-10-22T06:41:32.569Z,73.92
2022-10-22T06:44:35.410Z,72.32
2022-10-22T06:47:38.659Z,70.95
2022-10-22T06:50:42.032Z,68.57
2022-10-22T06:53:45.518Z,67.67
2022-10-22T06:56:48.289Z,66.10
2022-10-22T06:59:51.328Z,65.00
2022-10-22T07:02:57.681Z,62.82
2022-10-22T07:06:04.254Z,63.75
2022-10-22T07:09:06.975Z,63.48
2022-10-22T07:12:09.899Z,62.52
2022-10-22T07:15:12.538Z,62.06
2022-10-22T07:18:15.342Z,64.75
2022-10-22T07:21:20.442Z,61.51
2022-10-22T07:24:23.261Z,60.99
2022-10-22T07:27:25.753Z,60.50
2022-10-22T07:30:28.557Z,62.08
2022-10-22T07:33:31.333Z,61.46
2022-10-22T07:36:34.168Z,59.92
2022-10-22T07:39:37.784Z,60.82
2022-10-22T07:42:41.210Z,60.95
2022-10-22T07:45:45.028Z,60.15
2022-10-22T07:48:48.318Z,56.05
2022-10-22T07:51:50.893Z,54.01
2022-10-22T07:54:53.949Z,51.59
2022-10-22T07:57:56.558Z,50.79
2022-10-22T08:01:01.107Z,49.67
2022-10-22T08:04:04.154Z,49.97
2022-10-22T08:07:06.807Z,48.81
2022-10-22T08:10:12.098Z,48.74
2022-10-22T08:13:15.382Z,47.91
2022-10-22T08:16:18.445Z,47.09
2022-10-22T08:19:21.601Z,47.99
2022-10-22T08:22:24.563Z,45.73
2022-10-22T08:25:27.855Z,47.07
2022-10-22T08:28:32.933Z,48.24
2022-10-22T08:31:35.591Z,47.05
2022-10-22T08:34:38.722Z,44.38
2022-10-22T08:37:41.648Z,42.94
2022-10-22T08:43:54.623Z,47.04
2022-10-22T08:47:22.688Z,46.87
2022-10-22T08:50:54.596Z,48.09
2022-10-22T08:54:22.921Z,48.19
2022-10-22T08:57:52.304Z,48.96
2022-10-22T09:01:13.861Z,50.23
2022-10-22T09:04:28.804Z,52.99
2022-10-22T09:07:31.732Z,53.72
2022-10-22T09:10:38.297Z,53.42
2022-10-22T09:13:44.734Z,53.05
2022-10-22T09:17:12.638Z,53.70
2022-10-22T09:20:28.794Z,53.24
2022-10-22T09:23:58.313Z,53.47
2022-10-22T09:27:02.839Z,53.75
2022-10-22T09:30:05.952Z,54.63
2022-10-22T09:33:24.846Z,53.05
2022-10-22T09:36:31.393Z,53.16
2022-10-22T09:39:38.956Z,54.55
2022-10-22T09:42:41.606Z,53.26
2022-10-22T09:45:46.043Z,56.57
2022-10-22T09:48:53.080Z,57.30
2022-10-22T09:52:01.065Z,57.78
2022-10-22T09:55:14.147Z,57.50
2022-10-22T09:58:18.775Z,56.90
2022-10-22T10:01:29.921Z,56.96
2022-10-22T10:04:42.046Z,56.46
2022-10-22T10:07:44.782Z,56.13
2022-10-22T10:10:50.010Z,54.74
2022-10-22T10:14:07.412Z,54.28
2022-10-22T10:17:28.281Z,54.39
2022-10-22T10:20:49.770Z,54.25
2022-10-22T10:24:06.073Z,55.80
2022-10-22T10:27:20.584Z,57.19
2022-10-22T10:30:24.499Z,57.30
2022-10-22T10:33:57.970Z,56.00
2022-10-22T10:37:09.689Z,55.44
2022-10-22T10:40:19.804Z,54.56
2022-10-22T10:43:50.994Z,56.11
2022-10-22T10:47:06.075Z,57.13
2022-10-22T10:50:50.328Z,54.69
2022-10-22T10:54:20.623Z,54.89
2022-10-22T10:57:51.138Z,58.46
2022-10-22T11:00:58.183Z,59.40
2022-10-22T11:04:22.762Z,59.22
2022-10-22T11:07:36.906Z,59.51
2022-10-22T11:10:52.745Z,59.90
2022-10-22T11:14:05.260Z,60.90
2022-10-22T11:17:16.516Z,59.86
2022-10-22T11:20:28.450Z,60.49
2022-10-22T11:23:46.469Z,61.03
2022-10-22T11:27:05.304Z,62.10
2022-10-22T11:30:23.071Z,61.95
2022-10-22T11:33:29.314Z,62.23
2022-10-22T11:36:33.746Z,61.93
2022-10-22T11:39:45.753Z,62.17
2022-10-22T11:42:53.636Z,62.90
2022-10-22T11:46:27.298Z,61.61
2022-10-22T11:50:16.152Z,60.85
2022-10-22T11:53:31.552Z,60.43
2022-10-22T11:56:38.935Z,60.54
2022-10-22T11:59:52.115Z,59.02
2022-10-22T12:03:33.305Z,60.02
2022-10-22T12:07:00.324Z,61.96
2022-10-22T12:10:18.477Z,62.26
2022-10-22T12:13:25.027Z,60.07
2022-10-22T12:16:54.584Z,61.19
2022-10-22T12:20:03.219Z,60.49
2022-10-22T12:23:09.221Z,60.17
2022-10-22T12:29:38.331Z,60.41
2022-10-22T12:32:41.519Z,61.02
2022-10-22T12:35:46.519Z,61.68
2022-10-22T12:38:49.933Z,62.12
2022-10-22T12:41:54.370Z,62.35
2022-10-22T12:44:57.259Z,60.89
2022-10-22T12:48:02.324Z,61.58
2022-10-22T12:51:09.605Z,61.91
2022-10-22T12:54:25.267Z,61.90
2022-10-22T12:57:28.171Z,62.35
2022-10-22T13:00:34.613Z,63.36
2022-10-22T13:03:47.180Z,63.17
2022-10-22T13:06:54.529Z,62.83
2022-10-22T13:09:59.716Z,62.52
2022-10-22T13:13:04.108Z,62.76
2022-10-22T13:16:19.266Z,62.87
2022-10-22T13:19:54.681Z,62.71
2022-10-22T13:23:02.874Z,64.77
2022-10-22T13:26:17.794Z,63.70
2022-10-22T13:29:23.477Z,64.54
2022-10-22T13:32:32.154Z,64.44
2022-10-22T13:35:38.964Z,64.22
2022-10-22T13:38:42.522Z,64.87
2022-10-22T13:41:50.745Z,64.44
2022-10-22T13:44:53.335Z,63.87
2022-10-22T13:47:57.327Z,64.57
2022-10-22T13:51:00.098Z,64.06
2022-10-22T13:54:09.383Z,64.27
2022-10-22T13:57:11.947Z,65.04
2022-10-22T14:00:20.732Z,64.76
2022-10-22T14:03:33.370Z,65.14
2022-10-22T14:09:44.451Z,64.78
2022-10-22T14:12:52.344Z,65.28
2022-10-22T14:15:56.985Z,65.84
2022-10-22T14:19:01.152Z,65.00
2022-10-22T14:22:05.174Z,65.21
2022-10-22T14:25:12.590Z,65.22
2022-10-22T14:28:15.498Z,64.24
2022-10-22T14:31:17.984Z,65.29
2022-10-22T14:34:20.802Z,66.04
2022-10-22T14:37:24.929Z,65.55
2022-10-22T14:40:27.889Z,64.38
2022-10-22T14:43:31.325Z,64.92
2022-10-22T14:46:34.326Z,64.82
2022-10-22T14:49:36.860Z,64.30
2022-10-22T14:52:41.053Z,64.37
2022-10-22T14:55:45.052Z,64.53
2022-10-22T14:58:48.113Z,64.06
2022-10-22T15:01:50.716Z,64.92
2022-10-22T15:04:53.799Z,63.59
2022-10-22T15:07:59.083Z,64.29
2022-10-22T15:11:10.439Z,64.65
2022-10-22T15:14:13.110Z,64.58
2022-10-22T15:17:17.652Z,64.92
2022-10-22T15:20:20.500Z,64.82
2022-10-22T15:23:23.589Z,65.03
2022-10-22T15:26:26.179Z,65.90
2022-10-22T15:29:30.318Z,66.77
2022-10-22T15:32:34.091Z,66.96
2022-10-22T15:35:38.833Z,67.58
2022-10-22T15:38:41.837Z,67.98
2022-10-22T15:41:44.661Z,68.22
2022-10-22T15:44:47.300Z,68.61
2022-10-22T15:47:51.269Z,69.26
2022-10-22T15:50:53.885Z,69.80
2022-10-22T15:53:59.089Z,69.91
2022-10-22T15:57:03.531Z,70.59
2022-10-22T16:00:07.137Z,71.47
2022-10-22T16:03:14.792Z,72.56
2022-10-22T16:06:17.554Z,75.12
2022-10-22T16:09:23.265Z,75.81
2022-10-22T16:12:26.352Z,78.22
2022-10-22T16:15:28.944Z,79.27
2022-10-22T16:18:31.899Z,80.96
2022-10-22T16:21:34.395Z,82.48
2022-10-22T16:24:43.260Z,85.25
2022-10-22T16:27:50.086Z,89.00
2022-10-22T16:30:53.057Z,88.50
2022-10-22T16:33:55.820Z,92.72
2022-10-22T16:36:58.557Z,95.57
2022-10-22T16:40:07.389Z,95.86
2022-10-22T16:43:11.529Z,98.42
2022-10-22T16:46:19.215Z,99.46
2022-10-22T16:49:22.155Z,100.00
2022-10-22T16:52:24.657Z,100.00
2022-10-22T16:55:27.463Z,100.00
2022-10-22T16:58:30.864Z,100.00
2022-10-22T17:01:37.890Z,100.00
2022-10-22T17:04:43.192Z,100.00
2022-10-22T17:07:46.254Z,100.00
2022-10-22T17:10:48.726Z,100.00
2022-10-22T17:13:54.030Z,100.00
2022-10-22T17:16:57.790Z,100.00
2022-10-22T17:20:00.916Z,100.00
2022-10-22T17:23:03.651Z,100.00
2022-10-22T17:26:09.621Z,100.00
2022-10-22T17:29:13.387Z,100.00
2022-10-22T17:32:16.484Z,100.00
2022-10-22T17:35:20.019Z,100.00
2022-10-22T17:38:23.427Z,100.00
2022-10-22T17:41:29.908Z,100.00
2022-10-22T17:44:32.904Z,100.00
2022-10-22T17:47:36.350Z,100.00
2022-10-22T17:50:46.908Z,100.00
2022-10-22T17:53:52.889Z,100.00
2022-10-22T17:56:55.770Z,100.00
2022-10-22T17:59:58.828Z,100.00
2022-10-22T18:03:01.669Z,100.00
2022-10-22T18:06:08.810Z,100.00
2022-10-22T18:09:17.361Z,100.00
2022-10-22T18:12:21.824Z,100.00
2022-10-22T18:15:26.093Z,100.00
2022-10-22T18:18:30.207Z,100.00
2022-10-22T18:21:34.408Z,100.00
2022-10-22T18:24:38.953Z,100.00
2022-10-22T18:27:42.709Z,100.00
2022-10-22T18:30:47.960Z,100.00
2022-10-22T18:33:51.173Z,100.00
2022-10-22T18:36:54.074Z,100.00
2022-10-22T18:39:56.830Z,100.00
2022-10-22T18:42:59.917Z,100.00
2022-10-22T18:46:05.559Z,100.00
2022-10-22T18:49:11.728Z,100.00
2022-10-22T18:52:14.558Z,100.00
2022-10-22T18:55:18.518Z,100.00
2022-10-22T18:58:21.232Z,100.00
2022-10-22T19:01:29.259Z,100.00
2022-10-22T19:04:37.100Z,100.00
2022-10-22T19:07:41.355Z,100.00
2022-10-22T19:10:46.184Z,100.00
2022-10-22T19:13:49.325Z,100.00
2022-10-22T19:16:52.079Z,100.00
2022-10-22T19:19:55.433Z,100.00
2022-10-22T19:23:00.777Z,100.00
2022-10-22T19:26:12.738Z,100.00
2022-10-22T19:29:17.661Z,100.00
2022-10-22T19:32:21.417Z,100.00
2022-10-22T19:35:24.312Z,100.00
2022-10-22T19:38:29.712Z,100.00
2022-10-22T19:41:33.530Z,100.00
2022-10-22T19:44:36.483Z,100.00
2022-10-22T19:47:39.742Z,100.00
2022-10-22T19:50:42.769Z,100.00
2022-10-22T19:53:45.917Z,100.00
2022-10-22T19:56:49.941Z,100.00
2022-10-22T19:59:53.147Z,100.00
2022-10-22T20:02:56.171Z,100.00
2022-10-22T20:05:59.158Z,100.00
2022-10-22T20:09:01.780Z,100.00
2022-10-22T20:12:04.959Z,100.00
2022-10-22T20:15:08.143Z,100.00
2022-10-22T20:18:11.668Z,100.00
2022-10-22T20:21:16.026Z,100.00
2022-10-22T20:24:19.345Z,100.00
2022-10-22T20:27:23.396Z,100.00
2022-10-22T20:30:27.022Z,100.00
2022-10-22T20:33:29.590Z,100.00
2022-10-22T20:36:33.298Z,100.00
2022-10-22T20:39:40.000Z,100.00
2022-10-22T20:42:43.527Z,100.00
2022-10-22T20:45:46.315Z,100.00
2022-10-22T20:48:55.178Z,100.00
2022-10-22T20:51:57.679Z,100.00
2022-10-22T20:55:00.762Z,100.00
2022-10-22T20:58:03.291Z,100.00
2022-10-22T21:01:10.674Z,100.00
2022-10-22T21:04:14.212Z,100.00
2022-10-22T21:07:17.003Z,100.00
2022-10-22T21:10:19.626Z,100.00
2022-10-22T21:13:22.892Z,100.00
2022-10-22T21:16:26.008Z,100.00
2022-10-22T21:19:29.151Z,100.00
2022-10-22T21:22:32.622Z,100.00
2022-10-22T21:25:39.479Z,100.00
2022-10-22T21:28:45.053Z,100.00
2022-10-22T21:31:48.511Z,100.00
2022-10-22T21:34:51.273Z,100.00
2022-10-22T21:37:54.369Z,100.00
2022-10-22T21:40:57.517Z,100.00
2022-10-22T21:44:00.648Z,100.00
2022-10-22T21:47:03.291Z,100.00
2022-10-22T21:50:06.492Z,100.00
2022-10-22T21:53:10.681Z,100.00
2022-10-22T21:56:19.299Z,100.00
2022-10-22T21:59:21.775Z,100.00
2022-10-22T22:06:12.434Z,100.00
2022-10-22T22:09:15.269Z,100.00
2022-10-22T22:12:18.663Z,100.00
2022-10-22T22:15:21.653Z,100.00
2022-10-22T22:18:24.375Z,100.00
2022-10-22T22:21:27.648Z,100.00
2022-10-22T22:24:30.271Z,100.00
2022-10-22T22:27:33.491Z,100.00
2022-10-22T22:30:36.444Z,100.00
2022-10-22T22:33:39.212Z,100.00
2022-10-22T22:36:45.552Z,100.00
2022-10-22T22:39:48.448Z,100.00
2022-10-22T22:42:50.931Z,100.00
2022-10-22T22:46:04.911Z,100.00
2022-10-22T22:49:07.891Z,100.00
2022-10-22T22:52:11.201Z,100.00
2022-10-22T22:55:13.694Z,100.00
2022-10-22T22:58:16.549Z,100.00
2022-10-22T23:01:30.425Z,100.00
2022-10-22T23:04:33.512Z,100.00
2022-10-22T23:07:36.017Z,100.00
2022-10-22T23:10:38.863Z,100.00
2022-10-22T23:13:43.065Z,100.00
2022-10-22T23:16:48.864Z,100.00
2022-10-22T23:19:51.453Z,100.00
2022-10-22T23:22:54.194Z,100.00
2022-10-22T23:29:13.148Z,100.00
2022-10-22T23:32:15.594Z,100.00
2022-10-22T23:35:18.554Z,100.00
2022-10-22T23:38:20.973Z,100.00
2022-10-22T23:41:24.024Z,100.00
2022-10-22T23:44:26.694Z,100.00
2022-10-22T23:47:29.438Z,100.00
2022-10-22T23:50:32.153Z,100.00
2022-10-22T23:53:34.990Z,100.00
2022-10-22T23:56:37.668Z,100.00
2022-10-22T23:59:40.601Z,100.00
